createdAt,value
2023-01-31T00:00:10.528Z,20.55
2023-01-31T00:05:15.214Z,19.35
2023-01-31T00:10:18.576Z,9.25
2023-01-31T00:15:23.709Z,15.48
2023-01-31T00:20:33.940Z,13.65
2023-01-31T00:25:41.695Z,13.52
2023-01-31T00:30:44.708Z,12.25
2023-01-31T00:35:56.098Z,10.35
2023-01-31T00:41:04.242Z,11.30
2023-01-31T00:46:11.148Z,10.00
2023-01-31T00:51:20.063Z,17.13
2023-01-31T00:56:28.279Z,24.48
2023-01-31T01:01:30.937Z,11.48
2023-01-31T01:06:36.456Z,13.00
2023-01-31T01:11:43.042Z,10.10
2023-01-31T01:16:46.555Z,17.20
2023-01-31T01:21:51.081Z,15.32
2023-01-31T01:26:58.038Z,15.68
2023-01-31T01:32:01.665Z,14.90
2023-01-31T01:37:09.786Z,20.05
2023-01-31T01:42:17.743Z,17.20
2023-01-31T01:47:36.863Z,20.30
2023-01-31T01:52:47.091Z,16.80
2023-01-31T01:57:57.504Z,23.45
2023-01-31T02:03:02.221Z,20.55
2023-01-31T02:08:08.717Z,14.93
2023-01-31T02:13:13.878Z,17.17
2023-01-31T02:18:22.845Z,19.83
2023-01-31T02:23:58.242Z,20.73
2023-01-31T02:29:24.512Z,15.27
2023-01-31T02:34:37.919Z,29.27
2023-01-31T02:39:47.455Z,21.75
2023-01-31T02:44:55.565Z,22.83
2023-01-31T02:50:05.276Z,31.48
2023-01-31T02:55:15.669Z,19.02
2023-01-31T03:00:21.857Z,16.08
2023-01-31T03:05:26.284Z,12.77
2023-01-31T03:10:48.461Z,22.02
2023-01-31T03:16:02.477Z,42.22
2023-01-31T03:21:13.771Z,16.35
2023-01-31T03:26:18.885Z,21.70
2023-01-31T03:31:25.570Z,15.68
2023-01-31T03:36:38.650Z,18.53
2023-01-31T03:41:54.676Z,17.52
2023-01-31T03:47:03.843Z,10.35
2023-01-31T03:52:12.005Z,14.65
2023-01-31T03:57:20.024Z,17.20
2023-01-31T04:02:32.587Z,13.35
2023-01-31T04:07:40.876Z,16.05
2023-01-31T04:12:43.692Z,16.88
2023-01-31T04:17:46.668Z,15.48
2023-01-31T04:22:52.673Z,20.15
2023-01-31T04:27:56.117Z,19.30
2023-01-31T04:32:58.729Z,14.25
2023-01-31T04:38:03.063Z,20.70
2023-01-31T04:43:05.614Z,15.18
2023-01-31T04:48:08.905Z,13.05
2023-01-31T04:53:14.713Z,8.15
2023-01-31T04:58:17.403Z,13.43
2023-01-31T05:03:20.108Z,15.43
2023-01-31T05:08:24.341Z,11.80
2023-01-31T05:13:27.296Z,11.20
2023-01-31T05:18:31.739Z,15.48
2023-01-31T05:23:39.441Z,23.92
2023-01-31T05:28:43.837Z,10.13
2023-01-31T05:38:54.501Z,12.55
2023-01-31T05:43:58.907Z,15.95
2023-01-31T05:49:02.110Z,14.45
2023-01-31T05:54:07.604Z,14.27
2023-01-31T05:59:10.153Z,9.60
2023-01-31T06:04:13.026Z,20.63
2023-01-31T06:09:19.226Z,9.70
2023-01-31T06:14:21.885Z,14.82
2023-01-31T06:19:24.405Z,18.75
2023-01-31T06:24:30.638Z,17.35
2023-01-31T06:29:33.378Z,17.67
2023-01-31T06:34:35.880Z,15.27
2023-01-31T06:39:45.689Z,13.52
2023-01-31T06:44:48.352Z,20.23
2023-01-31T06:49:51.102Z,21.00
2023-01-31T06:54:55.220Z,14.60
2023-01-31T06:59:58.073Z,18.42
2023-01-31T07:05:01.239Z,20.92
2023-01-31T07:10:09.096Z,17.08
2023-01-31T07:15:12.301Z,20.70
2023-01-31T07:20:15.275Z,21.17
2023-01-31T07:25:24.433Z,20.48
2023-01-31T07:30:29.104Z,20.40
2023-01-31T07:35:32.214Z,19.33
2023-01-31T07:40:36.768Z,17.33
2023-01-31T07:45:40.468Z,21.30
2023-01-31T07:50:43.264Z,21.27
2023-01-31T07:55:47.829Z,17.45
2023-01-31T08:00:53.914Z,21.95
2023-01-31T08:05:59.723Z,23.08
2023-01-31T08:11:04.774Z,15.38
2023-01-31T08:16:09.182Z,21.70
2023-01-31T08:21:15.324Z,22.35
2023-01-31T08:26:21.580Z,21.90
2023-01-31T08:31:30.137Z,30.70
2023-01-31T08:36:33.982Z,17.92
2023-01-31T08:41:41.968Z,18.48
2023-01-31T08:46:44.929Z,15.82
2023-01-31T08:51:52.255Z,20.85
2023-01-31T09:01:59.278Z,18.67
2023-01-31T09:07:02.190Z,17.45
2023-01-31T09:12:07.188Z,13.75
2023-01-31T09:17:09.884Z,11.57
2023-01-31T09:22:15.247Z,18.23
2023-01-31T09:27:19.634Z,16.95
2023-01-31T09:32:22.197Z,11.55
2023-01-31T09:37:25.190Z,18.17
2023-01-31T09:42:36.783Z,13.95
2023-01-31T09:47:44.340Z,14.07
2023-01-31T09:52:47.203Z,15.38
2023-01-31T09:57:59.201Z,15.85
2023-01-31T10:03:23.844Z,11.38
2023-01-31T10:08:39.144Z,14.13
2023-01-31T10:13:52.083Z,18.90
2023-01-31T10:18:59.343Z,16.05
2023-01-31T10:24:07.511Z,16.15
2023-01-31T10:29:17.578Z,18.33
2023-01-31T10:34:25.256Z,14.88
2023-01-31T10:39:32.861Z,10.70
2023-01-31T10:44:44.285Z,11.65
2023-01-31T10:49:49.369Z,10.15
2023-01-31T10:55:03.585Z,12.43
2023-01-31T11:00:17.922Z,10.75
2023-01-31T11:05:29.301Z,15.20
2023-01-31T11:10:51.969Z,17.90
2023-01-31T11:16:18.967Z,9.27
2023-01-31T11:21:28.194Z,14.68
2023-01-31T11:26:50.290Z,13.38
2023-01-31T11:31:58.803Z,14.35
2023-01-31T11:42:33.122Z,17.48
2023-01-31T11:47:52.851Z,16.42
2023-01-31T11:53:23.014Z,15.18
2023-01-31T11:58:31.702Z,17.25
2023-01-31T12:03:43.864Z,12.90
2023-01-31T12:08:58.309Z,12.57
2023-01-31T12:14:23.805Z,12.30
2023-01-31T12:19:42.138Z,14.52
2023-01-31T12:24:54.853Z,14.70
2023-01-31T12:30:22.357Z,14.85
2023-01-31T12:35:50.843Z,12.48
2023-01-31T12:41:05.068Z,17.23
2023-01-31T12:46:20.947Z,20.65
2023-01-31T12:51:45.183Z,17.88
2023-01-31T12:57:03.890Z,10.93
2023-01-31T13:02:29.035Z,15.05
2023-01-31T13:07:39.750Z,17.38
2023-01-31T13:18:23.897Z,20.05
2023-01-31T13:23:39.629Z,14.43
2023-01-31T13:28:53.632Z,14.80
2023-01-31T13:34:06.207Z,12.13
2023-01-31T13:39:20.528Z,16.38
2023-01-31T13:44:37.084Z,12.85
2023-01-31T13:49:59.545Z,13.57
2023-01-31T14:01:05.694Z,14.35
2023-01-31T14:06:07.882Z,20.83
2023-01-31T14:11:34.129Z,13.93
2023-01-31T14:16:41.484Z,24.67
2023-01-31T14:26:55.274Z,18.30
2023-01-31T14:31:57.808Z,19.20
2023-01-31T14:37:13.843Z,18.05
2023-01-31T14:42:51.538Z,18.95
2023-01-31T14:48:13.378Z,17.27
2023-01-31T14:53:35.103Z,18.05
2023-01-31T14:58:43.642Z,23.92
2023-01-31T15:03:54.035Z,17.13
2023-01-31T15:09:25.835Z,15.90
2023-01-31T15:14:35.253Z,25.30
2023-01-31T15:19:45.696Z,20.15
2023-01-31T15:24:51.837Z,17.48
2023-01-31T15:30:01.821Z,12.90
2023-01-31T15:35:14.666Z,19.20
2023-01-31T15:40:21.785Z,15.02
2023-01-31T15:45:25.993Z,22.52
2023-01-31T15:50:31.591Z,20.00
2023-01-31T15:55:36.075Z,19.33
2023-01-31T16:00:38.703Z,13.27
2023-01-31T16:05:48.019Z,22.05
2023-01-31T16:10:51.109Z,19.33
2023-01-31T16:15:54.213Z,15.38
2023-01-31T16:20:57.965Z,17.77
2023-01-31T16:26:06.407Z,22.30
2023-01-31T16:31:10.971Z,27.85
2023-01-31T16:36:18.194Z,21.95
2023-01-31T16:41:42.141Z,27.35
2023-01-31T16:46:47.677Z,23.80
2023-01-31T16:51:52.292Z,23.85
2023-01-31T16:57:19.964Z,26.80
2023-01-31T17:02:25.866Z,28.90
2023-01-31T17:07:32.704Z,32.03
2023-01-31T17:12:37.702Z,26.17
2023-01-31T17:17:39.939Z,30.88
2023-01-31T17:22:45.706Z,27.55
2023-01-31T17:27:55.518Z,27.10
2023-01-31T17:32:58.470Z,30.05
2023-01-31T17:38:02.100Z,28.95
2023-01-31T17:43:07.360Z,32.83
2023-01-31T17:48:11.811Z,33.40
2023-01-31T17:53:21.417Z,27.15
2023-01-31T17:58:24.608Z,32.13
2023-01-31T18:03:26.734Z,38.10
2023-01-31T18:08:30.216Z,28.35
2023-01-31T18:13:32.403Z,27.55
2023-01-31T18:18:35.593Z,35.47
2023-01-31T18:23:39.296Z,29.30
2023-01-31T18:28:41.405Z,35.55
2023-01-31T18:33:45.287Z,32.42
2023-01-31T18:38:50.461Z,33.25
2023-01-31T18:43:52.649Z,31.75
2023-01-31T18:48:54.812Z,43.05
2023-01-31T18:53:58.334Z,27.60
2023-01-31T18:59:00.386Z,22.48
2023-01-31T19:04:02.624Z,26.90
2023-01-31T19:09:07.801Z,25.00
2023-01-31T19:14:14.766Z,28.20
2023-01-31T19:19:16.892Z,29.50
2023-01-31T19:24:20.688Z,30.73
2023-01-31T19:29:22.864Z,33.25
2023-01-31T19:34:25.213Z,27.15
2023-01-31T19:39:28.738Z,32.33
2023-01-31T19:44:30.876Z,35.45
2023-01-31T19:49:33.049Z,26.77
2023-01-31T19:54:36.586Z,28.63
2023-01-31T19:59:38.643Z,27.75
2023-01-31T20:04:40.733Z,22.45
2023-01-31T20:09:44.449Z,29.48
2023-01-31T20:14:46.568Z,26.85
2023-01-31T20:19:48.665Z,23.83
2023-01-31T20:24:52.162Z,37.90
2023-01-31T20:29:54.281Z,30.70
2023-01-31T20:34:56.403Z,25.20
2023-01-31T20:39:59.879Z,27.55
2023-01-31T20:45:02.045Z,30.50
2023-01-31T20:50:04.801Z,28.13
2023-01-31T20:55:09.608Z,27.50
2023-01-31T21:00:12.774Z,25.95
2023-01-31T21:05:16.348Z,31.15
2023-01-31T21:10:20.538Z,25.75
2023-01-31T21:15:24.323Z,25.25
2023-01-31T21:20:26.500Z,23.35
2023-01-31T21:25:30.674Z,27.58
2023-01-31T21:30:32.916Z,33.90
2023-01-31T21:35:37.973Z,26.42
2023-01-31T21:40:41.510Z,31.65
2023-01-31T21:45:45.346Z,29.52
2023-01-31T21:50:47.440Z,29.70
2023-01-31T21:55:53.470Z,25.15
2023-01-31T22:00:55.609Z,22.33
2023-01-31T22:06:01.427Z,25.83
2023-01-31T22:11:07.570Z,20.33
2023-01-31T22:16:11.328Z,31.50
2023-01-31T22:21:18.011Z,25.45
2023-01-31T22:26:23.767Z,22.48
2023-01-31T22:31:26.484Z,28.10
2023-01-31T22:36:28.679Z,25.10
2023-01-31T22:41:32.714Z,32.63
2023-01-31T22:46:35.245Z,27.98
2023-01-31T22:51:37.365Z,32.08
2023-01-31T22:56:40.848Z,25.30
2023-01-31T23:01:43.161Z,22.70
2023-01-31T23:06:45.376Z,25.58
2023-01-31T23:11:48.919Z,31.63
2023-01-31T23:16:51.095Z,24.98
2023-01-31T23:21:53.196Z,19.20
2023-01-31T23:26:56.797Z,30.25
2023-01-31T23:31:59.256Z,24.90
2023-01-31T23:37:01.383Z,25.20
2023-01-31T23:42:05.183Z,25.40
2023-01-31T23:47:07.454Z,30.23
2023-01-31T23:52:10.310Z,34.08
2023-01-31T23:57:13.830Z,22.90
